sensor_id;sensor_type;location;lat;lon;timestamp;pressure;altitude;pressure_sealevel;temperature;humidity
12475;BME280;6302;42.624;23.334;2023-06-10T00:01:39;92956.22;;;17.73;100.00
12475;BME280;6302;42.624;23.334;2023-06-10T00:04:06;92964.13;;;17.76;100.00
12475;BME280;6302;42.624;23.334;2023-06-10T00:06:32;92963.38;;;17.76;100.00
12475;BME280;6302;42.624;23.334;2023-06-10T00:09:02;92961.75;;;17.69;100.00
12475;BME280;6302;42.624;23.334;2023-06-10T00:11:31;92958.47;;;17.65;100.00
12475;BME280;6302;42.624;23.334;2023-06-10T00:13:59;92971.53;;;17.63;100.00
12475;BME280;6302;42.624;23.334;2023-06-10T00:16:26;92973.50;;;17.63;100.00
12475;BME280;6302;42.624;23.334;2023-06-10T00:18:53;92968.94;;;17.50;100.00
12475;BME280;6302;42.624;23.334;2023-06-10T00:21:26;92966.63;;;17.52;100.00
12475;BME280;6302;42.624;23.334;2023-06-10T00:23:53;92965.09;;;17.51;100.00
12475;BME280;6302;42.624;23.334;2023-06-10T00:26:21;92967.03;;;17.51;100.00
12475;BME280;6302;42.624;23.334;2023-06-10T00:28:47;92968.09;;;17.53;100.00
12475;BME280;6302;42.624;23.334;2023-06-10T00:31:16;92967.34;;;17.53;100.00
12475;BME280;6302;42.624;23.334;2023-06-10T00:33:43;92972.28;;;17.54;100.00
12475;BME280;6302;42.624;23.334;2023-06-10T00:36:10;92967.69;;;17.55;100.00
12475;BME280;6302;42.624;23.334;2023-06-10T00:38:36;92971.34;;;17.48;100.00
12475;BME280;6302;42.624;23.334;2023-06-10T00:41:03;92964.78;;;17.49;100.00
12475;BME280;6302;42.624;23.334;2023-06-10T00:43:30;92973.72;;;17.46;100.00
12475;BME280;6302;42.624;23.334;2023-06-10T00:45:57;92967.13;;;17.38;100.00
12475;BME280;6302;42.624;23.334;2023-06-10T00:48:25;92973.59;;;17.50;100.00
12475;BME280;6302;42.624;23.334;2023-06-10T00:50:53;92971.34;;;17.48;100.00
12475;BME280;6302;42.624;23.334;2023-06-10T00:53:21;92971.63;;;17.50;100.00
12475;BME280;6302;42.624;23.334;2023-06-10T00:55:48;92972.84;;;17.49;100.00
12475;BME280;6302;42.624;23.334;2023-06-10T00:58:15;92965.38;;;17.44;100.00
12475;BME280;6302;42.624;23.334;2023-06-10T01:00:42;92963.16;;;17.43;100.00
12475;BME280;6302;42.624;23.334;2023-06-10T01:03:10;92971.81;;;17.56;100.00
12475;BME280;6302;42.624;23.334;2023-06-10T01:05:38;92976.44;;;17.55;100.00
12475;BME280;6302;42.624;23.334;2023-06-10T01:08:11;92969.31;;;17.52;100.00
12475;BME280;6302;42.624;23.334;2023-06-10T01:10:43;92974.22;;;17.54;100.00
12475;BME280;6302;42.624;23.334;2023-06-10T01:13:13;92966.63;;;17.52;100.00
12475;BME280;6302;42.624;23.334;2023-06-10T01:15:41;92972.84;;;17.49;100.00
12475;BME280;6302;42.624;23.334;2023-06-10T01:18:09;92972.09;;;17.49;100.00
12475;BME280;6302;42.624;23.334;2023-06-10T01:20:42;92965.69;;;17.46;100.00
12475;BME280;6302;42.624;23.334;2023-06-10T01:23:11;92977.34;;;17.52;100.00
12475;BME280;6302;42.624;23.334;2023-06-10T01:25:40;92974.97;;;17.54;100.00
12475;BME280;6302;42.624;23.334;2023-06-10T01:28:12;92971.53;;;17.54;100.00
12475;BME280;6302;42.624;23.334;2023-06-10T01:30:44;92976.44;;;17.55;100.00
12475;BME280;6302;42.624;23.334;2023-06-10T01:33:14;92970.56;;;17.48;100.00
12475;BME280;6302;42.624;23.334;2023-06-10T01:35:47;92983.53;;;17.49;100.00
12475;BME280;6302;42.624;23.334;2023-06-10T01:38:16;92981.28;;;17.39;100.00
12475;BME280;6302;42.624;23.334;2023-06-10T01:40:46;92971.00;;;17.37;100.00
12475;BME280;6302;42.624;23.334;2023-06-10T01:43:13;92988.56;;;17.38;100.00
12475;BME280;6302;42.624;23.334;2023-06-10T01:45:39;92962.34;;;17.33;100.00
12475;BME280;6302;42.624;23.334;2023-06-10T01:48:06;92972.06;;;17.40;100.00
12475;BME280;6302;42.624;23.334;2023-06-10T01:50:33;92969.53;;;17.45;100.00
12475;BME280;6302;42.624;23.334;2023-06-10T01:53:00;92972.66;;;17.44;100.00
12475;BME280;6302;42.624;23.334;2023-06-10T01:55:28;92970.72;;;17.44;100.00
12475;BME280;6302;42.624;23.334;2023-06-10T01:57:55;92972.97;;;17.46;100.00
12475;BME280;6302;42.624;23.334;2023-06-10T02:00:21;92968.50;;;17.43;100.00
12475;BME280;6302;42.624;23.334;2023-06-10T02:02:48;92968.94;;;17.41;100.00
12475;BME280;6302;42.624;23.334;2023-06-10T02:05:15;92967.75;;;17.42;100.00
12475;BME280;6302;42.624;23.334;2023-06-10T02:07:42;92950.16;;;17.32;100.00
12475;BME280;6302;42.624;23.334;2023-06-10T02:10:09;92951.06;;;17.38;100.00
12475;BME280;6302;42.624;23.334;2023-06-10T02:12:37;92963.28;;;17.48;100.00
12475;BME280;6302;42.624;23.334;2023-06-10T02:15:04;92964.03;;;17.49;100.00
12475;BME280;6302;42.624;23.334;2023-06-10T02:17:31;92960.63;;;17.48;100.00
12475;BME280;6302;42.624;23.334;2023-06-10T02:19:58;92955.84;;;17.43;100.00
12475;BME280;6302;42.624;23.334;2023-06-10T02:22:31;92951.69;;;17.42;100.00
12475;BME280;6302;42.624;23.334;2023-06-10T02:24:58;92953.16;;;17.43;100.00
12475;BME280;6302;42.624;23.334;2023-06-10T02:27:25;92945.56;;;17.42;100.00
12475;BME280;6302;42.624;23.334;2023-06-10T02:29:54;92944.53;;;17.39;100.00
12475;BME280;6302;42.624;23.334;2023-06-10T02:32:20;92943.78;;;17.39;100.00
12475;BME280;6302;42.624;23.334;2023-06-10T02:34:47;92939.75;;;17.34;100.00
12475;BME280;6302;42.624;23.334;2023-06-10T02:37:14;92941.97;;;17.36;100.00
12475;BME280;6302;42.624;23.334;2023-06-10T02:39:41;92940.06;;;17.36;100.00
12475;BME280;6302;42.624;23.334;2023-06-10T02:42:08;92932.63;;;17.40;100.00
12475;BME280;6302;42.624;23.334;2023-06-10T02:44:35;92937.53;;;17.42;100.00
12475;BME280;6302;42.624;23.334;2023-06-10T02:47:04;92930.25;;;17.42;100.00
12475;BME280;6302;42.624;23.334;2023-06-10T02:49:31;92936.38;;;17.43;100.00
12475;BME280;6302;42.624;23.334;2023-06-10T02:51:57;92907.59;;;17.25;100.00
12475;BME280;6302;42.624;23.334;2023-06-10T02:54:24;92929.97;;;17.40;100.00
12475;BME280;6302;42.624;23.334;2023-06-10T02:56:52;92931.44;;;17.41;100.00
12475;BME280;6302;42.624;23.334;2023-06-10T02:59:21;92928.63;;;17.45;100.00
12475;BME280;6302;42.624;23.334;2023-06-10T03:01:47;92928.16;;;17.46;100.00
12475;BME280;6302;42.624;23.334;2023-06-10T03:04:16;92929.22;;;17.49;100.00
12475;BME280;6302;42.624;23.334;2023-06-10T03:06:43;92919.53;;;17.42;100.00
12475;BME280;6302;42.624;23.334;2023-06-10T03:09:11;92932.66;;;17.49;100.00
12475;BME280;6302;42.624;23.334;2023-06-10T03:11:37;92936.06;;;17.50;100.00
12475;BME280;6302;42.624;23.334;2023-06-10T03:14:04;92933.41;;;17.50;100.00
12475;BME280;6302;42.624;23.334;2023-06-10T03:16:31;92934.47;;;17.52;100.00
12475;BME280;6302;42.624;23.334;2023-06-10T03:18:58;92931.78;;;17.52;100.00
12475;BME280;6302;42.624;23.334;2023-06-10T03:21:26;92933.72;;;17.52;100.00
12475;BME280;6302;42.624;23.334;2023-06-10T03:23:53;92943.84;;;17.57;100.00
12475;BME280;6302;42.624;23.334;2023-06-10T03:26:20;92905.97;;;17.37;100.00
12475;BME280;6302;42.624;23.334;2023-06-10T03:28:47;92890.31;;;17.26;100.00
12475;BME280;6302;42.624;23.334;2023-06-10T03:31:14;92948.78;;;17.68;100.00
12475;BME280;6302;42.624;23.334;2023-06-10T03:33:42;92947.59;;;17.69;100.00
12475;BME280;6302;42.624;23.334;2023-06-10T03:36:08;92949.97;;;17.67;100.00
12475;BME280;6302;42.624;23.334;2023-06-10T03:38:37;92868.72;;;17.12;100.00
12475;BME280;6302;42.624;23.334;2023-06-10T03:41:04;92950.72;;;17.67;100.00
12475;BME280;6302;42.624;23.334;2023-06-10T03:43:31;92960.69;;;17.76;100.00
12475;BME280;6302;42.624;23.334;2023-06-10T03:45:57;92963.50;;;17.54;100.00
12475;BME280;6302;42.624;23.334;2023-06-10T03:48:24;92949.59;;;17.37;100.00
12475;BME280;6302;42.624;23.334;2023-06-10T03:50:51;92959.72;;;17.42;100.00
12475;BME280;6302;42.624;23.334;2023-06-10T03:53:18;92964.78;;;17.40;100.00
12475;BME280;6302;42.624;23.334;2023-06-10T03:55:46;92950.47;;;17.34;100.00
12475;BME280;6302;42.624;23.334;2023-06-10T03:58:13;92958.50;;;17.43;100.00
12475;BME280;6302;42.624;23.334;2023-06-10T04:00:40;92935.44;;;17.28;100.00
12475;BME280;6302;42.624;23.334;2023-06-10T04:03:08;92926.94;;;17.29;100.00
12475;BME280;6302;42.624;23.334;2023-06-10T04:05:39;92948.72;;;17.49;100.00
12475;BME280;6302;42.624;23.334;2023-06-10T04:08:06;92952.03;;;17.53;100.00
12475;BME280;6302;42.624;23.334;2023-06-10T04:10:33;92952.66;;;17.58;100.00
12475;BME280;6302;42.624;23.334;2023-06-10T04:13:01;92948.00;;;17.58;100.00
12475;BME280;6302;42.624;23.334;2023-06-10T04:15:29;92952.06;;;17.63;100.00
12475;BME280;6302;42.624;23.334;2023-06-10T04:17:58;92952.78;;;17.63;100.00
12475;BME280;6302;42.624;23.334;2023-06-10T04:20:25;92922.66;;;17.41;100.00
12475;BME280;6302;42.624;23.334;2023-06-10T04:22:51;92962.19;;;17.68;100.00
12475;BME280;6302;42.624;23.334;2023-06-10T04:25:18;92962.78;;;17.72;100.00
12475;BME280;6302;42.624;23.334;2023-06-10T04:27:45;92962.63;;;17.75;100.00
12475;BME280;6302;42.624;23.334;2023-06-10T04:30:17;92916.88;;;17.51;100.00
12475;BME280;6302;42.624;23.334;2023-06-10T04:32:47;92955.78;;;17.74;100.00
12475;BME280;6302;42.624;23.334;2023-06-10T04:35:17;92961.91;;;17.84;100.00
12475;BME280;6302;42.624;23.334;2023-06-10T04:37:43;92967.13;;;17.87;100.00
12475;BME280;6302;42.624;23.334;2023-06-10T04:40:11;92963.38;;;17.76;100.00
12475;BME280;6302;42.624;23.334;2023-06-10T04:42:37;92966.34;;;17.78;100.00
12475;BME280;6302;42.624;23.334;2023-06-10T04:45:05;92962.78;;;17.81;100.00
12475;BME280;6302;42.624;23.334;2023-06-10T04:47:34;92962.81;;;17.90;100.00
12475;BME280;6302;42.624;23.334;2023-06-10T04:50:01;92956.41;;;17.96;100.00
12475;BME280;6302;42.624;23.334;2023-06-10T04:52:28;92958.50;;;18.01;100.00
12475;BME280;6302;42.624;23.334;2023-06-10T04:54:55;92960.13;;;18.08;100.00
12475;BME280;6302;42.624;23.334;2023-06-10T04:57:23;92958.06;;;18.12;100.00
12475;BME280;6302;42.624;23.334;2023-06-10T04:59:51;92954.19;;;18.13;100.00
12475;BME280;6302;42.624;23.334;2023-06-10T05:02:18;92922.47;;;17.84;100.00
12475;BME280;6302;42.624;23.334;2023-06-10T05:04:46;92956.88;;;18.04;100.00
12475;BME280;6302;42.624;23.334;2023-06-10T05:07:13;92964.63;;;18.02;100.00
12475;BME280;6302;42.624;23.334;2023-06-10T05:09:40;92932.44;;;17.84;100.00
12475;BME280;6302;42.624;23.334;2023-06-10T05:12:08;92961.03;;;17.96;100.00
12475;BME280;6302;42.624;23.334;2023-06-10T05:14:38;92960.44;;;18.01;100.00
12475;BME280;6302;42.624;23.334;2023-06-10T05:17:05;92955.81;;;18.10;100.00
12475;BME280;6302;42.624;23.334;2023-06-10T05:19:32;92956.25;;;18.18;100.00
12475;BME280;6302;42.624;23.334;2023-06-10T05:22:02;92953.00;;;18.23;100.00
12475;BME280;6302;42.624;23.334;2023-06-10T05:24:29;92953.56;;;18.27;100.00
12475;BME280;6302;42.624;23.334;2023-06-10T05:26:56;92961.03;;;18.32;100.00
12475;BME280;6302;42.624;23.334;2023-06-10T05:29:23;92953.28;;;18.34;100.00
12475;BME280;6302;42.624;23.334;2023-06-10T05:31:49;92953.59;;;18.36;100.00
12475;BME280;6302;42.624;23.334;2023-06-10T05:34:16;92962.81;;;18.35;100.00
12475;BME280;6302;42.624;23.334;2023-06-10T05:36:43;92959.53;;;18.31;100.00
12475;BME280;6302;42.624;23.334;2023-06-10T05:39:11;92960.31;;;18.32;100.00
12475;BME280;6302;42.624;23.334;2023-06-10T05:41:38;92950.88;;;18.27;100.00
12475;BME280;6302;42.624;23.334;2023-06-10T05:44:05;92965.94;;;18.25;100.00
12475;BME280;6302;42.624;23.334;2023-06-10T05:46:32;92967.31;;;18.29;100.00
12475;BME280;6302;42.624;23.334;2023-06-10T05:48:58;92966.69;;;18.25;100.00
12475;BME280;6302;42.624;23.334;2023-06-10T05:51:25;92970.28;;;18.31;100.00
12475;BME280;6302;42.624;23.334;2023-06-10T05:53:53;92971.47;;;18.30;100.00
12475;BME280;6302;42.624;23.334;2023-06-10T05:56:22;92969.22;;;18.38;100.00
12475;BME280;6302;42.624;23.334;2023-06-10T05:58:49;92938.81;;;18.23;100.00
12475;BME280;6302;42.624;23.334;2023-06-10T06:01:15;92977.72;;;18.45;100.00
12475;BME280;6302;42.624;23.334;2023-06-10T06:03:42;92980.41;;;18.54;100.00
12475;BME280;6302;42.624;23.334;2023-06-10T06:06:09;92976.22;;;18.62;100.00
12475;BME280;6302;42.624;23.334;2023-06-10T06:08:36;92975.19;;;18.60;100.00
12475;BME280;6302;42.624;23.334;2023-06-10T06:11:02;92986.06;;;18.65;100.00
12475;BME280;6302;42.624;23.334;2023-06-10T06:13:31;92976.53;;;18.55;100.00
12475;BME280;6302;42.624;23.334;2023-06-10T06:15:57;92980.13;;;18.52;100.00
12475;BME280;6302;42.624;23.334;2023-06-10T06:18:24;92986.22;;;18.44;100.00
12475;BME280;6302;42.624;23.334;2023-06-10T06:20:51;92976.22;;;18.44;100.00
12475;BME280;6302;42.624;23.334;2023-06-10T06:23:18;92982.97;;;18.49;100.00
12475;BME280;6302;42.624;23.334;2023-06-10T06:25:44;92984.59;;;18.55;100.00
12475;BME280;6302;42.624;23.334;2023-06-10T06:28:11;92978.03;;;18.65;100.00
12475;BME280;6302;42.624;23.334;2023-06-10T06:30:39;92977.72;;;18.72;100.00
12475;BME280;6302;42.624;23.334;2023-06-10T06:33:06;92981.88;;;18.82;100.00
12475;BME280;6302;42.624;23.334;2023-06-10T06:35:33;92978.84;;;18.90;100.00
12475;BME280;6302;42.624;23.334;2023-06-10T06:38:00;92979.16;;;19.01;100.00
12475;BME280;6302;42.624;23.334;2023-06-10T06:40:27;92976.41;;;19.10;100.00
12475;BME280;6302;42.624;23.334;2023-06-10T06:42:54;92974.91;;;19.18;100.00
12475;BME280;6302;42.624;23.334;2023-06-10T06:45:20;92975.19;;;19.20;100.00
12475;BME280;6302;42.624;23.334;2023-06-10T06:47:49;92975.22;;;19.11;100.00
12475;BME280;6302;42.624;23.334;2023-06-10T06:50:16;92976.72;;;19.12;100.00
12475;BME280;6302;42.624;23.334;2023-06-10T06:52:44;92975.22;;;19.11;100.00
12475;BME280;6302;42.624;23.334;2023-06-10T06:55:11;92976.75;;;18.94;100.00
12475;BME280;6302;42.624;23.334;2023-06-10T06:57:37;92986.44;;;19.00;100.00
12475;BME280;6302;42.624;23.334;2023-06-10T07:00:06;92978.25;;;18.95;100.00
12475;BME280;6302;42.624;23.334;2023-06-10T07:02:34;92974.63;;;19.07;100.00
12475;BME280;6302;42.624;23.334;2023-06-10T07:05:03;92954.38;;;19.06;100.00
12475;BME280;6302;42.624;23.334;2023-06-10T07:07:30;92955.34;;;19.17;100.00
12475;BME280;6302;42.624;23.334;2023-06-10T07:09:57;92970.91;;;19.55;100.00
12475;BME280;6302;42.624;23.334;2023-06-10T07:12:24;92974.69;;;19.72;100.00
12475;BME280;6302;42.624;23.334;2023-06-10T07:14:51;92970.56;;;19.86;100.00
12475;BME280;6302;42.624;23.334;2023-06-10T07:17:17;92971.03;;;19.84;100.00
12475;BME280;6302;42.624;23.334;2023-06-10T07:19:44;92971.13;;;19.66;100.00
12475;BME280;6302;42.624;23.334;2023-06-10T07:22:13;92966.84;;;19.83;100.00
12475;BME280;6302;42.624;23.334;2023-06-10T07:24:40;92959.69;;;19.80;100.00
12475;BME280;6302;42.624;23.334;2023-06-10T07:27:07;92967.34;;;19.96;100.00
12475;BME280;6302;42.624;23.334;2023-06-10T07:29:34;92970.25;;;20.07;100.00
12475;BME280;6302;42.624;23.334;2023-06-10T07:32:02;92962.66;;;20.30;100.00
12475;BME280;6302;42.624;23.334;2023-06-10T07:34:29;92955.91;;;20.34;100.00
12475;BME280;6302;42.624;23.334;2023-06-10T07:36:55;92962.72;;;20.59;100.00
12475;BME280;6302;42.624;23.334;2023-06-10T07:39:24;92954.34;;;20.71;100.00
12475;BME280;6302;42.624;23.334;2023-06-10T07:41:51;92956.03;;;20.84;100.00
12475;BME280;6302;42.624;23.334;2023-06-10T07:44:19;92950.66;;;20.84;100.00
12475;BME280;6302;42.624;23.334;2023-06-10T07:46:46;92962.53;;;21.06;100.00
12475;BME280;6302;42.624;23.334;2023-06-10T07:49:13;92967.56;;;21.13;100.00
12475;BME280;6302;42.624;23.334;2023-06-10T07:51:40;92954.28;;;20.81;100.00
12475;BME280;6302;42.624;23.334;2023-06-10T07:54:07;92964.94;;;21.04;100.00
12475;BME280;6302;42.624;23.334;2023-06-10T07:56:35;92971.94;;;21.25;100.00
12475;BME280;6302;42.624;23.334;2023-06-10T07:59:02;92968.00;;;21.26;100.00
12475;BME280;6302;42.624;23.334;2023-06-10T08:01:28;92956.13;;;21.18;100.00
12475;BME280;6302;42.624;23.334;2023-06-10T08:03:56;92972.59;;;21.20;100.00
12475;BME280;6302;42.624;23.334;2023-06-10T08:06:23;92975.44;;;21.02;100.00
12475;BME280;6302;42.624;23.334;2023-06-10T08:08:50;92965.59;;;20.99;100.00
12475;BME280;6302;42.624;23.334;2023-06-10T08:11:16;92978.78;;;20.97;100.00
12475;BME280;6302;42.624;23.334;2023-06-10T08:13:45;92974.81;;;21.07;100.00
12475;BME280;6302;42.624;23.334;2023-06-10T08:16:11;92978.91;;;21.17;100.00
12475;BME280;6302;42.624;23.334;2023-06-10T08:18:38;92967.34;;;21.31;100.00
12475;BME280;6302;42.624;23.334;2023-06-10T08:21:05;92973.75;;;21.34;100.00
12475;BME280;6302;42.624;23.334;2023-06-10T08:23:32;92957.84;;;21.36;100.00
12475;BME280;6302;42.624;23.334;2023-06-10T08:25:58;92974.66;;;21.46;100.00
12475;BME280;6302;42.624;23.334;2023-06-10T08:28:25;92965.78;;;21.25;100.00
12475;BME280;6302;42.624;23.334;2023-06-10T08:30:53;92970.25;;;21.28;100.00
12475;BME280;6302;42.624;23.334;2023-06-10T08:33:20;92968.47;;;21.39;100.00
12475;BME280;6302;42.624;23.334;2023-06-10T08:35:47;92959.84;;;21.56;100.00
12475;BME280;6302;42.624;23.334;2023-06-10T08:38:14;92957.91;;;21.91;100.00
12475;BME280;6302;42.624;23.334;2023-06-10T08:40:41;92961.56;;;22.08;100.00
12475;BME280;6302;42.624;23.334;2023-06-10T08:43:11;92959.81;;;22.05;100.00
12475;BME280;6302;42.624;23.334;2023-06-10T08:45:43;92956.38;;;22.05;100.00
12475;BME280;6302;42.624;23.334;2023-06-10T08:48:14;92954.63;;;22.22;100.00
12475;BME280;6302;42.624;23.334;2023-06-10T08:50:43;92947.31;;;22.28;94.14
12475;BME280;6302;42.624;23.334;2023-06-10T08:53:14;92948.72;;;22.43;96.08
12475;BME280;6302;42.624;23.334;2023-06-10T08:55:45;92938.50;;;22.53;89.15
12475;BME280;6302;42.624;23.334;2023-06-10T08:58:14;92936.69;;;22.64;95.27
12475;BME280;6302;42.624;23.334;2023-06-10T09:00:41;92930.72;;;22.86;92.06
12475;BME280;6302;42.624;23.334;2023-06-10T09:03:09;92922.34;;;23.10;98.13
12475;BME280;6302;42.624;23.334;2023-06-10T09:05:37;92930.34;;;23.30;98.97
12475;BME280;6302;42.624;23.334;2023-06-10T09:08:06;92932.81;;;23.28;89.72
12475;BME280;6302;42.624;23.334;2023-06-10T09:10:34;92913.44;;;23.04;92.72
12475;BME280;6302;42.624;23.334;2023-06-10T09:13:01;92921.84;;;23.06;93.28
12475;BME280;6302;42.624;23.334;2023-06-10T09:15:28;92907.72;;;23.27;93.51
12475;BME280;6302;42.624;23.334;2023-06-10T09:17:55;92918.28;;;23.62;89.75
12475;BME280;6302;42.624;23.334;2023-06-10T09:20:22;92927.69;;;23.72;87.05
12475;BME280;6302;42.624;23.334;2023-06-10T09:22:51;92917.00;;;23.52;89.64
12475;BME280;6302;42.624;23.334;2023-06-10T09:25:17;92919.59;;;23.78;86.84
12475;BME280;6302;42.624;23.334;2023-06-10T09:27:45;92914.22;;;23.83;90.65
12475;BME280;6302;42.624;23.334;2023-06-10T09:30:24;92917.81;;;24.17;92.73
12475;BME280;6302;42.624;23.334;2023-06-10T09:32:52;92910.28;;;24.54;95.07
12475;BME280;6302;42.624;23.334;2023-06-10T09:35:21;92911.34;;;24.79;82.75
12475;BME280;6302;42.624;23.334;2023-06-10T09:37:51;92906.66;;;24.69;82.24
12475;BME280;6302;42.624;23.334;2023-06-10T09:40:19;92915.81;;;24.93;87.43
12475;BME280;6302;42.624;23.334;2023-06-10T09:42:45;92906.88;;;24.54;80.47
12475;BME280;6302;42.624;23.334;2023-06-10T09:45:19;92899.16;;;24.30;81.97
12475;BME280;6302;42.624;23.334;2023-06-10T09:47:46;92910.25;;;24.38;83.32
12475;BME280;6302;42.624;23.334;2023-06-10T09:50:12;92899.97;;;24.53;85.53
12475;BME280;6302;42.624;23.334;2023-06-10T09:52:39;92881.97;;;24.50;87.24
12475;BME280;6302;42.624;23.334;2023-06-10T09:55:09;92904.22;;;24.87;80.12
12475;BME280;6302;42.624;23.334;2023-06-10T09:57:36;92890.66;;;24.87;71.27
12475;BME280;6302;42.624;23.334;2023-06-10T10:00:05;92889.69;;;24.90;69.54
12475;BME280;6302;42.624;23.334;2023-06-10T10:02:44;92889.19;;;25.19;75.68
12475;BME280;6302;42.624;23.334;2023-06-10T10:05:12;92892.59;;;25.37;75.24
12475;BME280;6302;42.624;23.334;2023-06-10T10:07:40;92883.50;;;25.12;69.75
12475;BME280;6302;42.624;23.334;2023-06-10T10:10:09;92872.94;;;24.97;63.92
12475;BME280;6302;42.624;23.334;2023-06-10T10:12:37;92870.47;;;25.10;71.49
12475;BME280;6302;42.624;23.334;2023-06-10T10:15:06;92867.75;;;25.10;69.27
12475;BME280;6302;42.624;23.334;2023-06-10T10:17:34;92858.84;;;25.21;67.51
12475;BME280;6302;42.624;23.334;2023-06-10T10:20:03;92842.81;;;25.29;68.87
12475;BME280;6302;42.624;23.334;2023-06-10T10:22:35;92853.69;;;25.23;66.20
12475;BME280;6302;42.624;23.334;2023-06-10T10:25:10;92858.59;;;25.30;66.73
12475;BME280;6302;42.624;23.334;2023-06-10T10:27:44;92850.44;;;25.52;73.27
12475;BME280;6302;42.624;23.334;2023-06-10T10:30:14;92857.47;;;25.83;70.58
12475;BME280;6302;42.624;23.334;2023-06-10T10:32:48;92857.16;;;26.14;71.14
12475;BME280;6302;42.624;23.334;2023-06-10T10:35:21;92845.88;;;26.40;69.24
12475;BME280;6302;42.624;23.334;2023-06-10T10:37:48;92842.81;;;26.55;71.63
12475;BME280;6302;42.624;23.334;2023-06-10T10:40:17;92846.56;;;26.52;70.48
12475;BME280;6302;42.624;23.334;2023-06-10T10:42:44;92849.53;;;26.48;70.37
12475;BME280;6302;42.624;23.334;2023-06-10T10:47:52;92841.59;;;26.09;64.55
12475;BME280;6302;42.624;23.334;2023-06-10T10:50:20;92836.81;;;25.74;66.56
12475;BME280;6302;42.624;23.334;2023-06-10T10:52:53;92843.00;;;25.69;65.45
12475;BME280;6302;42.624;23.334;2023-06-10T10:55:22;92835.91;;;25.50;66.46
12475;BME280;6302;42.624;23.334;2023-06-10T10:57:56;92824.66;;;25.87;73.58
12475;BME280;6302;42.624;23.334;2023-06-10T11:00:30;92831.44;;;26.15;69.28
12475;BME280;6302;42.624;23.334;2023-06-10T11:03:00;92819.03;;;26.31;69.09
12475;BME280;6302;42.624;23.334;2023-06-10T11:05:38;92832.84;;;26.27;66.29
12475;BME280;6302;42.624;23.334;2023-06-10T11:08:08;92829.25;;;26.08;64.21
12475;BME280;6302;42.624;23.334;2023-06-10T11:10:37;92820.00;;;25.81;67.00
12475;BME280;6302;42.624;23.334;2023-06-10T11:13:08;92822.50;;;25.74;66.58
12475;BME280;6302;42.624;23.334;2023-06-10T11:15:40;92817.06;;;25.68;65.93
12475;BME280;6302;42.624;23.334;2023-06-10T11:18:11;92808.16;;;25.79;67.03
12475;BME280;6302;42.624;23.334;2023-06-10T11:21:00;92804.16;;;25.91;70.61
12475;BME280;6302;42.624;23.334;2023-06-10T11:23:40;92806.47;;;26.22;69.02
12475;BME280;6302;42.624;23.334;2023-06-10T11:26:16;92802.53;;;26.59;66.47
12475;BME280;6302;42.624;23.334;2023-06-10T11:29:05;92802.97;;;26.98;63.02
12475;BME280;6302;42.624;23.334;2023-06-10T11:31:43;92802.13;;;27.08;63.78
12475;BME280;6302;42.624;23.334;2023-06-10T11:34:11;92796.00;;;26.73;63.02
12475;BME280;6302;42.624;23.334;2023-06-10T11:36:39;92798.84;;;26.56;67.97
12475;BME280;6302;42.624;23.334;2023-06-10T11:39:11;92796.13;;;26.56;64.35
12475;BME280;6302;42.624;23.334;2023-06-10T11:41:39;92797.19;;;26.83;64.88
12475;BME280;6302;42.624;23.334;2023-06-10T11:44:10;92780.31;;;26.90;63.70
12475;BME280;6302;42.624;23.334;2023-06-10T11:46:38;92791.88;;;26.61;64.00
12475;BME280;6302;42.624;23.334;2023-06-10T11:49:05;92794.44;;;26.12;62.07
12475;BME280;6302;42.624;23.334;2023-06-10T11:51:34;92770.09;;;25.90;62.72
12475;BME280;6302;42.624;23.334;2023-06-10T11:54:01;92760.94;;;25.93;63.33
12475;BME280;6302;42.624;23.334;2023-06-10T11:56:30;92780.28;;;26.25;64.02
12475;BME280;6302;42.624;23.334;2023-06-10T11:58:59;92785.34;;;26.45;61.92
12475;BME280;6302;42.624;23.334;2023-06-10T12:01:30;92759.28;;;26.25;66.04
12475;BME280;6302;42.624;23.334;2023-06-10T12:03:59;92777.53;;;26.30;65.35
12475;BME280;6302;42.624;23.334;2023-06-10T12:06:38;92784.28;;;26.18;69.52
12475;BME280;6302;42.624;23.334;2023-06-10T12:09:06;92778.06;;;26.23;67.76
12475;BME280;6302;42.624;23.334;2023-06-10T12:11:33;92773.81;;;26.33;68.86
12475;BME280;6302;42.624;23.334;2023-06-10T12:14:01;92780.09;;;26.53;67.44
12475;BME280;6302;42.624;23.334;2023-06-10T12:16:29;92777.78;;;26.62;63.07
12475;BME280;6302;42.624;23.334;2023-06-10T12:19:01;92772.72;;;26.83;60.33
12475;BME280;6302;42.624;23.334;2023-06-10T12:21:29;92761.97;;;26.96;59.90
12475;BME280;6302;42.624;23.334;2023-06-10T12:24:01;92772.06;;;27.25;57.53
12475;BME280;6302;42.624;23.334;2023-06-10T12:26:38;92763.19;;;27.19;55.80
12475;BME280;6302;42.624;23.334;2023-06-10T12:29:18;92770.53;;;27.05;54.88
12475;BME280;6302;42.624;23.334;2023-06-10T12:31:53;92765.53;;;27.09;59.19
12475;BME280;6302;42.624;23.334;2023-06-10T12:34:28;92765.13;;;27.24;58.38
12475;BME280;6302;42.624;23.334;2023-06-10T12:36:54;92764.34;;;27.29;59.03
12475;BME280;6302;42.624;23.334;2023-06-10T12:39:21;92764.50;;;27.13;56.20
12475;BME280;6302;42.624;23.334;2023-06-10T12:41:48;92757.31;;;27.15;57.98
12475;BME280;6302;42.624;23.334;2023-06-10T12:44:17;92752.22;;;27.30;59.76
12475;BME280;6302;42.624;23.334;2023-06-10T12:46:43;92752.88;;;27.36;62.00
12475;BME280;6302;42.624;23.334;2023-06-10T12:49:19;92743.97;;;27.36;60.16
12475;BME280;6302;42.624;23.334;2023-06-10T12:51:47;92744.56;;;27.04;55.89
12475;BME280;6302;42.624;23.334;2023-06-10T12:54:16;92748.84;;;26.65;56.99
12475;BME280;6302;42.624;23.334;2023-06-10T12:56:43;92753.28;;;26.38;56.16
12475;BME280;6302;42.624;23.334;2023-06-10T12:59:10;92752.22;;;26.17;58.23
12475;BME280;6302;42.624;23.334;2023-06-10T13:01:38;92752.22;;;26.11;60.48